sensor_id;sensor_type;location;lat;lon;timestamp;temperature;humidity
1005;DHT22;491;53.480;10.174;2023-02-16T00:01:42;1.60;99.90
1005;DHT22;491;53.480;10.174;2023-02-16T00:04:22;1.60;99.90
1005;DHT22;491;53.480;10.174;2023-02-16T00:06:48;1.40;99.90
1005;DHT22;491;53.480;10.174;2023-02-16T00:09:14;1.30;99.90
1005;DHT22;491;53.480;10.174;2023-02-16T00:11:40;1.20;99.90
1005;DHT22;491;53.480;10.174;2023-02-16T00:14:25;1.00;99.90
1005;DHT22;491;53.480;10.174;2023-02-16T00:16:55;1.00;99.90
1005;DHT22;491;53.480;10.174;2023-02-16T00:19:29;1.10;99.90
1005;DHT22;491;53.480;10.174;2023-02-16T00:21:58;1.10;99.90
1005;DHT22;491;53.480;10.174;2023-02-16T00:24:25;1.10;99.90
1005;DHT22;491;53.480;10.174;2023-02-16T00:26:51;1.00;99.90
1005;DHT22;491;53.480;10.174;2023-02-16T00:34:34;1.00;99.90
1005;DHT22;491;53.480;10.174;2023-02-16T00:37:05;1.10;99.90
1005;DHT22;491;53.480;10.174;2023-02-16T00:39:32;0.90;99.90
1005;DHT22;491;53.480;10.174;2023-02-16T00:42:18;0.90;99.90
1005;DHT22;491;53.480;10.174;2023-02-16T00:44:50;1.10;99.90
1005;DHT22;491;53.480;10.174;2023-02-16T00:47:35;1.30;99.90
1005;DHT22;491;53.480;10.174;2023-02-16T00:50:14;1.20;99.90
1005;DHT22;491;53.480;10.174;2023-02-16T00:52:44;1.00;99.90
1005;DHT22;491;53.480;10.174;2023-02-16T00:55:18;1.20;99.90
1005;DHT22;491;53.480;10.174;2023-02-16T00:58:01;1.20;99.90
1005;DHT22;491;53.480;10.174;2023-02-16T01:00:59;1.70;99.90
1005;DHT22;491;53.480;10.174;2023-02-16T01:03:28;1.70;99.90
1005;DHT22;491;53.480;10.174;2023-02-16T01:05:54;1.50;99.90
1005;DHT22;491;53.480;10.174;2023-02-16T01:08:40;1.40;99.90
1005;DHT22;491;53.480;10.174;2023-02-16T01:11:25;1.40;99.90
1005;DHT22;491;53.480;10.174;2023-02-16T01:13:53;1.30;99.90
1005;DHT22;491;53.480;10.174;2023-02-16T01:16:45;1.60;99.90
1005;DHT22;491;53.480;10.174;2023-02-16T01:19:11;1.80;99.90
1005;DHT22;491;53.480;10.174;2023-02-16T01:21:37;1.90;99.90
1005;DHT22;491;53.480;10.174;2023-02-16T01:24:02;2.00;99.90
1005;DHT22;491;53.480;10.174;2023-02-16T01:26:28;1.90;99.90
1005;DHT22;491;53.480;10.174;2023-02-16T01:28:54;1.80;99.90
1005;DHT22;491;53.480;10.174;2023-02-16T01:31:20;1.50;99.90
1005;DHT22;491;53.480;10.174;2023-02-16T01:33:45;1.70;99.90
1005;DHT22;491;53.480;10.174;2023-02-16T01:36:28;1.50;99.90
1005;DHT22;491;53.480;10.174;2023-02-16T01:38:55;1.30;99.90
1005;DHT22;491;53.480;10.174;2023-02-16T01:41:39;1.20;99.90
1005;DHT22;491;53.480;10.174;2023-02-16T01:44:22;1.10;99.90
1005;DHT22;491;53.480;10.174;2023-02-16T01:49:45;1.30;99.90
1005;DHT22;491;53.480;10.174;2023-02-16T01:52:36;1.40;99.90
1005;DHT22;491;53.480;10.174;2023-02-16T01:55:28;1.20;99.90
1005;DHT22;491;53.480;10.174;2023-02-16T01:58:03;0.90;99.90
1005;DHT22;491;53.480;10.174;2023-02-16T02:03:20;1.10;99.90
1005;DHT22;491;53.480;10.174;2023-02-16T02:06:10;1.10;99.90
1005;DHT22;491;53.480;10.174;2023-02-16T02:08:48;1.50;99.90
1005;DHT22;491;53.480;10.174;2023-02-16T02:11:17;1.70;99.90
1005;DHT22;491;53.480;10.174;2023-02-16T02:14:14;1.70;99.90
1005;DHT22;491;53.480;10.174;2023-02-16T02:19:22;1.50;99.90
1005;DHT22;491;53.480;10.174;2023-02-16T02:27:43;1.30;99.90
1005;DHT22;491;53.480;10.174;2023-02-16T02:33:21;1.30;99.90
1005;DHT22;491;53.480;10.174;2023-02-16T02:36:04;1.20;99.90
1005;DHT22;491;53.480;10.174;2023-02-16T02:38:43;1.10;99.90
1005;DHT22;491;53.480;10.174;2023-02-16T02:41:23;1.00;99.90
1005;DHT22;491;53.480;10.174;2023-02-16T02:44:16;1.00;99.90
1005;DHT22;491;53.480;10.174;2023-02-16T02:46:44;1.10;99.90
1005;DHT22;491;53.480;10.174;2023-02-16T02:49:10;1.00;99.90
1005;DHT22;491;53.480;10.174;2023-02-16T02:51:35;1.00;99.90
1005;DHT22;491;53.480;10.174;2023-02-16T02:54:13;0.90;99.90
1005;DHT22;491;53.480;10.174;2023-02-16T02:57:13;1.10;99.90
1005;DHT22;491;53.480;10.174;2023-02-16T03:00:00;1.50;99.90
1005;DHT22;491;53.480;10.174;2023-02-16T03:02:48;1.30;99.90
1005;DHT22;491;53.480;10.174;2023-02-16T03:05:15;1.30;99.90
1005;DHT22;491;53.480;10.174;2023-02-16T03:07:44;1.60;99.90
1005;DHT22;491;53.480;10.174;2023-02-16T03:10:12;1.80;99.90
1005;DHT22;491;53.480;10.174;2023-02-16T03:12:58;1.80;99.90
1005;DHT22;491;53.480;10.174;2023-02-16T03:15:25;1.80;99.90
1005;DHT22;491;53.480;10.174;2023-02-16T03:17:53;1.90;99.90
1005;DHT22;491;53.480;10.174;2023-02-16T03:20:39;2.10;99.90
1005;DHT22;491;53.480;10.174;2023-02-16T03:23:24;2.10;99.90
1005;DHT22;491;53.480;10.174;2023-02-16T03:26:09;2.10;99.90
1005;DHT22;491;53.480;10.174;2023-02-16T03:28:54;2.10;99.90
1005;DHT22;491;53.480;10.174;2023-02-16T03:31:41;2.10;99.90
1005;DHT22;491;53.480;10.174;2023-02-16T03:34:08;2.20;99.90
1005;DHT22;491;53.480;10.174;2023-02-16T03:36:35;2.20;99.90
1005;DHT22;491;53.480;10.174;2023-02-16T03:39:07;2.10;99.90
1005;DHT22;491;53.480;10.174;2023-02-16T03:41:38;2.20;99.90
1005;DHT22;491;53.480;10.174;2023-02-16T03:44:04;2.20;99.90
1005;DHT22;491;53.480;10.174;2023-02-16T03:46:32;2.10;99.90
1005;DHT22;491;53.480;10.174;2023-02-16T03:48:58;2.10;99.90
1005;DHT22;491;53.480;10.174;2023-02-16T03:51:23;2.00;99.90
1005;DHT22;491;53.480;10.174;2023-02-16T03:53:49;2.00;99.90
1005;DHT22;491;53.480;10.174;2023-02-16T03:56:14;1.80;99.90
1005;DHT22;491;53.480;10.174;2023-02-16T03:58:40;1.80;99.90
1005;DHT22;491;53.480;10.174;2023-02-16T04:01:06;1.80;99.90
1005;DHT22;491;53.480;10.174;2023-02-16T04:03:31;1.90;99.90
1005;DHT22;491;53.480;10.174;2023-02-16T04:05:57;1.90;99.90
1005;DHT22;491;53.480;10.174;2023-02-16T04:08:22;1.80;99.90
1005;DHT22;491;53.480;10.174;2023-02-16T04:10:48;1.80;99.90
1005;DHT22;491;53.480;10.174;2023-02-16T04:13:13;1.60;99.90
1005;DHT22;491;53.480;10.174;2023-02-16T04:15:39;1.80;99.90
1005;DHT22;491;53.480;10.174;2023-02-16T04:18:05;1.70;99.90
1005;DHT22;491;53.480;10.174;2023-02-16T04:20:32;1.80;99.90
1005;DHT22;491;53.480;10.174;2023-02-16T04:22:58;1.80;99.90
1005;DHT22;491;53.480;10.174;2023-02-16T04:25:24;1.80;99.90
1005;DHT22;491;53.480;10.174;2023-02-16T04:27:51;1.70;99.90
1005;DHT22;491;53.480;10.174;2023-02-16T04:30:23;1.90;99.90
1005;DHT22;491;53.480;10.174;2023-02-16T04:32:49;1.80;99.90
1005;DHT22;491;53.480;10.174;2023-02-16T04:35:15;1.80;99.90
1005;DHT22;491;53.480;10.174;2023-02-16T04:37:46;1.50;99.90
1005;DHT22;491;53.480;10.174;2023-02-16T04:40:14;1.50;99.90
1005;DHT22;491;53.480;10.174;2023-02-16T04:42:41;1.80;99.90
1005;DHT22;491;53.480;10.174;2023-02-16T04:45:08;1.80;99.90
1005;DHT22;491;53.480;10.174;2023-02-16T04:47:34;1.80;99.90
1005;DHT22;491;53.480;10.174;2023-02-16T04:49:59;2.00;99.90
1005;DHT22;491;53.480;10.174;2023-02-16T04:52:25;1.70;99.90
1005;DHT22;491;53.480;10.174;2023-02-16T04:54:50;1.80;99.90
1005;DHT22;491;53.480;10.174;2023-02-16T04:57:16;1.70;99.90
1005;DHT22;491;53.480;10.174;2023-02-16T04:59:43;1.90;99.90
1005;DHT22;491;53.480;10.174;2023-02-16T05:02:09;1.80;99.90
1005;DHT22;491;53.480;10.174;2023-02-16T05:04:34;1.80;99.90
1005;DHT22;491;53.480;10.174;2023-02-16T05:06:59;1.80;99.90
1005;DHT22;491;53.480;10.174;2023-02-16T05:09:25;1.90;99.90
1005;DHT22;491;53.480;10.174;2023-02-16T05:11:50;1.70;99.90
1005;DHT22;491;53.480;10.174;2023-02-16T05:14:35;1.80;99.90
1005;DHT22;491;53.480;10.174;2023-02-16T05:17:21;1.80;99.90
1005;DHT22;491;53.480;10.174;2023-02-16T05:19:51;1.90;99.90
1005;DHT22;491;53.480;10.174;2023-02-16T05:22:18;1.80;99.90
1005;DHT22;491;53.480;10.174;2023-02-16T05:24:43;1.90;99.90
1005;DHT22;491;53.480;10.174;2023-02-16T05:27:19;2.00;99.90
1005;DHT22;491;53.480;10.174;2023-02-16T05:29:45;2.00;99.90
1005;DHT22;491;53.480;10.174;2023-02-16T05:32:11;2.00;99.90
1005;DHT22;491;53.480;10.174;2023-02-16T05:34:36;2.00;99.90
1005;DHT22;491;53.480;10.174;2023-02-16T05:37:02;2.00;99.90
1005;DHT22;491;53.480;10.174;2023-02-16T05:39:27;2.00;99.90
1005;DHT22;491;53.480;10.174;2023-02-16T05:41:56;2.10;99.90
1005;DHT22;491;53.480;10.174;2023-02-16T05:44:21;2.10;99.90
1005;DHT22;491;53.480;10.174;2023-02-16T05:46:47;2.20;99.90
1005;DHT22;491;53.480;10.174;2023-02-16T05:49:13;2.20;99.90
1005;DHT22;491;53.480;10.174;2023-02-16T05:51:40;2.30;99.90
1005;DHT22;491;53.480;10.174;2023-02-16T05:54:06;2.20;99.90
1005;DHT22;491;53.480;10.174;2023-02-16T05:56:32;2.20;99.90
1005;DHT22;491;53.480;10.174;2023-02-16T05:59:00;2.20;99.90
1005;DHT22;491;53.480;10.174;2023-02-16T06:01:27;2.10;99.90
1005;DHT22;491;53.480;10.174;2023-02-16T06:03:53;2.30;99.90
1005;DHT22;491;53.480;10.174;2023-02-16T06:06:18;2.30;99.90
1005;DHT22;491;53.480;10.174;2023-02-16T06:08:44;2.30;99.90
1005;DHT22;491;53.480;10.174;2023-02-16T06:11:09;2.30;99.90
1005;DHT22;491;53.480;10.174;2023-02-16T06:13:54;2.30;99.90
1005;DHT22;491;53.480;10.174;2023-02-16T06:16:25;2.30;99.90
1005;DHT22;491;53.480;10.174;2023-02-16T06:18:52;2.30;99.90
1005;DHT22;491;53.480;10.174;2023-02-16T06:21:17;2.30;99.90
1005;DHT22;491;53.480;10.174;2023-02-16T06:23:45;2.20;99.90
1005;DHT22;491;53.480;10.174;2023-02-16T06:26:11;2.30;99.90
1005;DHT22;491;53.480;10.174;2023-02-16T06:28:36;2.20;99.90
1005;DHT22;491;53.480;10.174;2023-02-16T06:31:05;2.10;99.90
1005;DHT22;491;53.480;10.174;2023-02-16T06:33:30;2.30;99.90
1005;DHT22;491;53.480;10.174;2023-02-16T06:35:56;2.20;99.90
1005;DHT22;491;53.480;10.174;2023-02-16T06:38:21;2.10;99.90
1005;DHT22;491;53.480;10.174;2023-02-16T06:40:47;2.10;99.90
1005;DHT22;491;53.480;10.174;2023-02-16T06:43:12;2.30;99.90
1005;DHT22;491;53.480;10.174;2023-02-16T06:45:37;2.60;99.90
1005;DHT22;491;53.480;10.174;2023-02-16T06:48:03;2.50;99.90
1005;DHT22;491;53.480;10.174;2023-02-16T06:50:28;2.60;99.90
1005;DHT22;491;53.480;10.174;2023-02-16T06:52:57;2.60;99.90
1005;DHT22;491;53.480;10.174;2023-02-16T06:55:22;2.70;99.90
1005;DHT22;491;53.480;10.174;2023-02-16T06:57:48;2.70;99.90
1005;DHT22;491;53.480;10.174;2023-02-16T07:00:14;2.70;99.90
1005;DHT22;491;53.480;10.174;2023-02-16T07:02:40;2.60;99.90
1005;DHT22;491;53.480;10.174;2023-02-16T07:05:08;2.60;99.90
1005;DHT22;491;53.480;10.174;2023-02-16T07:07:33;2.70;99.90
1005;DHT22;491;53.480;10.174;2023-02-16T07:09:59;2.70;99.90
1005;DHT22;491;53.480;10.174;2023-02-16T07:12:24;2.70;99.90
1005;DHT22;491;53.480;10.174;2023-02-16T07:14:50;2.60;99.90
1005;DHT22;491;53.480;10.174;2023-02-16T07:17:15;2.70;99.90
1005;DHT22;491;53.480;10.174;2023-02-16T07:19:41;2.80;99.90
1005;DHT22;491;53.480;10.174;2023-02-16T07:22:09;2.90;99.90
1005;DHT22;491;53.480;10.174;2023-02-16T07:24:35;3.10;99.90
1005;DHT22;491;53.480;10.174;2023-02-16T07:27:01;3.30;99.90
1005;DHT22;491;53.480;10.174;2023-02-16T07:29:26;3.70;99.90
1005;DHT22;491;53.480;10.174;2023-02-16T07:31:52;3.70;99.90
1005;DHT22;491;53.480;10.174;2023-02-16T07:34:17;4.20;99.90
1005;DHT22;491;53.480;10.174;2023-02-16T07:36:43;4.10;99.90
1005;DHT22;491;53.480;10.174;2023-02-16T07:39:09;4.20;99.90
1005;DHT22;491;53.480;10.174;2023-02-16T07:41:35;4.00;99.90
1005;DHT22;491;53.480;10.174;2023-02-16T07:44:00;4.10;99.90
1005;DHT22;491;53.480;10.174;2023-02-16T07:46:26;4.20;99.90
1005;DHT22;491;53.480;10.174;2023-02-16T07:48:51;4.20;99.90
1005;DHT22;491;53.480;10.174;2023-02-16T07:51:25;4.20;99.90
1005;DHT22;491;53.480;10.174;2023-02-16T07:53:51;4.10;99.90
1005;DHT22;491;53.480;10.174;2023-02-16T07:56:22;4.10;99.90
1005;DHT22;491;53.480;10.174;2023-02-16T07:58:50;4.10;99.90
1005;DHT22;491;53.480;10.174;2023-02-16T08:01:16;4.10;99.90
1005;DHT22;491;53.480;10.174;2023-02-16T08:03:42;4.20;99.90
1005;DHT22;491;53.480;10.174;2023-02-16T08:06:07;4.20;99.90
1005;DHT22;491;53.480;10.174;2023-02-16T08:08:34;4.30;99.90
1005;DHT22;491;53.480;10.174;2023-02-16T08:10:59;4.40;99.90
1005;DHT22;491;53.480;10.174;2023-02-16T08:13:31;4.40;99.90
1005;DHT22;491;53.480;10.174;2023-02-16T08:16:00;4.50;99.90
1005;DHT22;491;53.480;10.174;2023-02-16T08:18:29;4.50;99.90
1005;DHT22;491;53.480;10.174;2023-02-16T08:20:55;4.60;99.90
1005;DHT22;491;53.480;10.174;2023-02-16T08:23:21;4.60;99.90
1005;DHT22;491;53.480;10.174;2023-02-16T08:25:47;4.70;99.90
1005;DHT22;491;53.480;10.174;2023-02-16T08:28:17;4.80;99.90
1005;DHT22;491;53.480;10.174;2023-02-16T08:30:43;4.80;99.90
1005;DHT22;491;53.480;10.174;2023-02-16T08:33:09;4.90;99.90
1005;DHT22;491;53.480;10.174;2023-02-16T08:35:37;4.90;99.90
1005;DHT22;491;53.480;10.174;2023-02-16T08:38:02;5.00;99.90
1005;DHT22;491;53.480;10.174;2023-02-16T08:40:28;5.00;99.90
1005;DHT22;491;53.480;10.174;2023-02-16T08:42:54;5.00;99.90
1005;DHT22;491;53.480;10.174;2023-02-16T08:47:46;5.40;99.90
1005;DHT22;491;53.480;10.174;2023-02-16T08:50:13;5.40;99.90
1005;DHT22;491;53.480;10.174;2023-02-16T08:52:40;5.40;99.90
1005;DHT22;491;53.480;10.174;2023-02-16T08:55:05;5.50;99.90
1005;DHT22;491;53.480;10.174;2023-02-16T08:57:34;5.40;99.90
1005;DHT22;491;53.480;10.174;2023-02-16T09:00:00;5.50;99.90
1005;DHT22;491;53.480;10.174;2023-02-16T09:02:44;5.60;99.90
1005;DHT22;491;53.480;10.174;2023-02-16T09:05:09;5.60;99.90
1005;DHT22;491;53.480;10.174;2023-02-16T09:07:35;5.70;99.90
1005;DHT22;491;53.480;10.174;2023-02-16T09:10:01;5.80;99.90
1005;DHT22;491;53.480;10.174;2023-02-16T09:12:27;5.80;99.90
1005;DHT22;491;53.480;10.174;2023-02-16T09:27:07;6.30;99.90
1005;DHT22;491;53.480;10.174;2023-02-16T09:29:32;6.30;99.90
1005;DHT22;491;53.480;10.174;2023-02-16T09:31:58;6.40;99.90
1005;DHT22;491;53.480;10.174;2023-02-16T09:34:24;6.50;99.90
1005;DHT22;491;53.480;10.174;2023-02-16T09:36:51;6.60;99.90
1005;DHT22;491;53.480;10.174;2023-02-16T09:39:17;6.60;99.90
1005;DHT22;491;53.480;10.174;2023-02-16T09:45:08;6.70;99.90
1005;DHT22;491;53.480;10.174;2023-02-16T09:47:39;6.80;99.90
